createdAt,value
2017-09-05T00:00:39.812Z,100900.39
2017-09-05T00:01:45.919Z,100898.56
2017-09-05T00:02:51.980Z,100894.94
2017-09-05T00:03:57.686Z,100895.48
2017-09-05T00:05:03.828Z,100900.64
2017-09-05T00:06:10.013Z,100898.91
2017-09-05T00:07:31.512Z,100902.41
2017-09-05T00:08:50.472Z,100898.02
2017-09-05T00:10:04.800Z,100900.66
2017-09-05T00:11:27.054Z,100898.26
2017-09-05T00:12:45.348Z,100897.48
2017-09-05T00:14:09.580Z,100900.17
2017-09-05T00:15:44.367Z,100898.23
2017-09-05T00:17:05.780Z,100902.53
2017-09-05T00:18:27.678Z,100902.73
2017-09-05T00:19:45.738Z,100899.57
2017-09-05T00:20:51.657Z,100900.23
2017-09-05T00:21:59.117Z,100894.75
2017-09-05T00:23:07.617Z,100897.11
2017-09-05T00:24:13.750Z,100897.61
2017-09-05T00:25:19.777Z,100898.91
2017-09-05T00:26:26.367Z,100894.54
2017-09-05T00:27:33.018Z,100896.35
2017-09-05T00:28:38.969Z,100896.53
2017-09-05T00:29:46.603Z,100888.75
2017-09-05T00:30:53.422Z,100898.33
2017-09-05T00:31:59.687Z,100894.52
2017-09-05T00:33:05.751Z,100893.91
2017-09-05T00:34:11.832Z,100900.29
2017-09-05T00:35:18.856Z,100900.19
2017-09-05T00:36:24.977Z,100904.58
2017-09-05T00:37:31.861Z,100905.92
2017-09-05T00:38:38.306Z,100901.17
2017-09-05T00:39:45.093Z,100900.30
2017-09-05T00:40:51.802Z,100901.22
2017-09-05T00:41:58.872Z,100902.12
2017-09-05T00:43:04.404Z,100903.39
2017-09-05T00:44:10.149Z,100903.30
2017-09-05T00:45:16.853Z,100902.00
2017-09-05T00:46:23.572Z,100898.50
2017-09-05T00:47:30.622Z,100900.77
2017-09-05T00:48:37.820Z,100901.30
2017-09-05T00:49:44.226Z,100905.23
2017-09-05T00:50:49.941Z,100903.69
2017-09-05T00:51:56.819Z,100901.12
2017-09-05T00:53:02.918Z,100897.03
2017-09-05T00:54:09.721Z,100899.96
2017-09-05T00:55:15.779Z,100901.44
2017-09-05T00:56:21.990Z,100894.34
2017-09-05T00:57:27.833Z,100895.86
2017-09-05T00:58:34.305Z,100895.55
2017-09-05T00:59:41.276Z,100894.23
2017-09-05T01:00:48.039Z,100896.14
2017-09-05T01:01:54.164Z,100896.70
2017-09-05T01:03:00.260Z,100899.38
2017-09-05T01:04:06.838Z,100897.24
2017-09-05T01:05:13.442Z,100899.81
2017-09-05T01:06:18.619Z,100894.87
2017-09-05T01:07:24.130Z,100898.92
2017-09-05T01:08:32.372Z,100900.56
2017-09-05T01:09:38.757Z,100898.92
2017-09-05T01:10:44.526Z,100897.24
2017-09-05T01:11:51.644Z,100891.45
2017-09-05T01:12:58.835Z,100892.83
2017-09-05T01:14:04.710Z,100888.97
2017-09-05T01:15:11.388Z,100891.06
2017-09-05T01:16:17.599Z,100885.45
2017-09-05T01:17:23.779Z,100887.15
2017-09-05T01:18:29.591Z,100883.08
2017-09-05T01:19:35.048Z,100886.38
2017-09-05T01:20:40.761Z,100884.52
2017-09-05T01:21:45.974Z,100884.72
2017-09-05T01:22:51.983Z,100889.20
2017-09-05T01:23:58.183Z,100887.86
2017-09-05T01:25:04.359Z,100887.48
2017-09-05T01:26:10.480Z,100883.63
2017-09-05T01:27:17.235Z,100883.70
2017-09-05T01:28:23.518Z,100886.31
2017-09-05T01:29:29.651Z,100880.20
2017-09-05T01:30:35.763Z,100878.48
2017-09-05T01:31:41.833Z,100879.84
2017-09-05T01:32:47.932Z,100881.64
2017-09-05T01:33:54.056Z,100882.07
2017-09-05T01:35:00.159Z,100886.27
2017-09-05T01:36:06.843Z,100881.26
2017-09-05T01:37:13.233Z,100883.48
2017-09-05T01:38:19.389Z,100879.90
2017-09-05T01:39:25.523Z,100879.91
2017-09-05T01:40:31.389Z,100879.66
2017-09-05T01:41:37.393Z,100877.70
2017-09-05T01:42:43.583Z,100870.59
2017-09-05T01:43:49.701Z,100878.48
2017-09-05T01:44:56.137Z,100870.41
2017-09-05T01:46:03.221Z,100879.51
2017-09-05T01:47:10.090Z,100872.25
2017-09-05T01:48:17.105Z,100873.97
2017-09-05T01:49:23.810Z,100874.44
2017-09-05T01:50:30.391Z,100873.12
2017-09-05T01:51:36.379Z,100871.14
2017-09-05T01:52:43.524Z,100865.92
2017-09-05T01:53:49.669Z,100871.47
2017-09-05T01:54:55.978Z,100874.05
2017-09-05T01:56:02.103Z,100868.30
2017-09-05T01:57:08.289Z,100868.70
2017-09-05T01:58:15.102Z,100872.92
2017-09-05T01:59:21.197Z,100865.09
2017-09-05T02:00:27.948Z,100869.77
2017-09-05T02:01:34.445Z,100869.53
2017-09-05T02:02:40.936Z,100868.77
2017-09-05T02:03:46.449Z,100867.08
2017-09-05T02:04:52.556Z,100869.86
2017-09-05T02:05:59.164Z,100865.14
2017-09-05T02:07:05.985Z,100866.44
2017-09-05T02:08:12.707Z,100863.48
2017-09-05T02:09:18.808Z,100867.41
2017-09-05T02:10:25.671Z,100860.56
2017-09-05T02:11:32.401Z,100863.50
2017-09-05T02:12:38.525Z,100862.31
2017-09-05T02:13:44.636Z,100869.71
2017-09-05T02:14:50.720Z,100866.44
2017-09-05T02:15:57.616Z,100857.48
2017-09-05T02:17:03.670Z,100853.72
2017-09-05T02:18:09.786Z,100851.20
2017-09-05T02:19:16.244Z,100853.92
2017-09-05T02:20:23.264Z,100859.07
2017-09-05T02:21:30.088Z,100860.12
2017-09-05T02:22:36.346Z,100858.93
2017-09-05T02:23:42.447Z,100860.72
2017-09-05T02:24:48.562Z,100856.75
2017-09-05T02:25:54.664Z,100859.55
2017-09-05T02:27:00.766Z,100853.12
2017-09-05T02:28:07.464Z,100860.62
2017-09-05T02:29:14.140Z,100859.42
2017-09-05T02:30:21.106Z,100858.86
2017-09-05T02:31:27.221Z,100858.39
2017-09-05T02:32:33.416Z,100856.02
2017-09-05T02:33:40.201Z,100862.23
2017-09-05T02:34:46.467Z,100869.22
2017-09-05T02:35:53.420Z,100862.64
2017-09-05T02:36:59.910Z,100861.70
2017-09-05T02:38:06.718Z,100860.00
2017-09-05T02:39:12.855Z,100858.25
2017-09-05T02:40:19.253Z,100863.67
2017-09-05T02:41:25.372Z,100868.38
2017-09-05T02:42:31.523Z,100861.80
2017-09-05T02:43:37.715Z,100860.43
2017-09-05T02:44:43.836Z,100855.53
2017-09-05T02:45:50.703Z,100856.91
2017-09-05T02:46:57.632Z,100854.48
2017-09-05T02:48:03.712Z,100859.70
2017-09-05T02:49:10.560Z,100852.47
2017-09-05T02:50:16.837Z,100859.20
2017-09-05T02:51:22.912Z,100859.08
2017-09-05T02:52:29.011Z,100864.08
2017-09-05T02:53:35.995Z,100862.36
2017-09-05T02:54:42.175Z,100861.44
2017-09-05T02:55:48.318Z,100858.73
2017-09-05T02:56:54.489Z,100858.16
2017-09-05T02:58:00.614Z,100850.69
2017-09-05T02:59:07.509Z,100851.06
2017-09-05T03:00:13.683Z,100848.40
2017-09-05T03:01:20.350Z,100842.19
2017-09-05T03:02:26.528Z,100848.27
2017-09-05T03:03:32.667Z,100856.23
2017-09-05T03:04:38.517Z,100851.20
2017-09-05T03:05:45.230Z,100853.09
2017-09-05T03:06:51.107Z,100849.16
2017-09-05T03:07:57.361Z,100854.84
2017-09-05T03:09:03.355Z,100854.84
2017-09-05T03:10:10.992Z,100848.65
2017-09-05T03:11:17.155Z,100848.73
2017-09-05T03:12:23.027Z,100847.05
2017-09-05T03:13:29.137Z,100850.86
2017-09-05T03:14:35.326Z,100846.50
2017-09-05T03:15:41.441Z,100856.95
2017-09-05T03:16:48.107Z,100851.86
2017-09-05T03:17:54.180Z,100850.37
2017-09-05T03:19:00.367Z,100856.47
2017-09-05T03:20:06.571Z,100849.11
2017-09-05T03:21:13.497Z,100846.95
2017-09-05T03:22:19.590Z,100848.41
2017-09-05T03:23:26.458Z,100843.99
2017-09-05T03:24:33.154Z,100839.61
2017-09-05T03:25:39.341Z,100839.89
2017-09-05T03:26:45.980Z,100839.94
2017-09-05T03:27:52.167Z,100836.14
2017-09-05T03:28:59.045Z,100841.94
2017-09-05T03:30:05.184Z,100841.09
2017-09-05T03:31:12.857Z,100836.89
2017-09-05T03:32:19.727Z,100840.76
2017-09-05T03:33:26.209Z,100840.73
2017-09-05T03:34:32.044Z,100840.16
2017-09-05T03:35:38.197Z,100843.11
2017-09-05T03:36:47.373Z,100843.20
2017-09-05T03:37:54.992Z,100844.06
2017-09-05T03:39:01.454Z,100847.31
2017-09-05T03:40:08.059Z,100842.70
2017-09-05T03:41:14.693Z,100850.01
2017-09-05T03:42:20.971Z,100849.59
2017-09-05T03:43:27.323Z,100847.03
2017-09-05T03:44:33.485Z,100843.63
2017-09-05T03:45:40.554Z,100842.23
2017-09-05T03:46:46.665Z,100841.80
2017-09-05T03:47:53.692Z,100843.05
2017-09-05T03:48:59.794Z,100854.08
2017-09-05T03:50:06.716Z,100852.31
2017-09-05T03:51:13.034Z,100851.70
2017-09-05T03:52:20.035Z,100850.17
2017-09-05T03:53:26.864Z,100855.22
2017-09-05T03:54:33.086Z,100851.48
2017-09-05T03:55:40.430Z,100856.12
2017-09-05T03:56:47.231Z,100852.56
2017-09-05T03:57:53.455Z,100843.36
2017-09-05T03:59:00.471Z,100848.86
2017-09-05T04:00:07.193Z,100852.62
2017-09-05T04:01:14.485Z,100852.23
2017-09-05T04:02:22.930Z,100847.48
2017-09-05T04:03:29.251Z,100849.34
2017-09-05T04:04:35.834Z,100847.80
2017-09-05T04:05:43.670Z,100845.33
2017-09-05T04:06:51.326Z,100848.30
2017-09-05T04:07:57.828Z,100853.50
2017-09-05T04:09:03.646Z,100843.72
2017-09-05T04:10:10.956Z,100848.15
2017-09-05T04:11:18.600Z,100846.97
2017-09-05T04:12:25.600Z,100847.13
2017-09-05T04:13:34.000Z,100846.80
2017-09-05T04:14:41.005Z,100850.31
2017-09-05T04:15:48.273Z,100845.58
2017-09-05T04:16:54.530Z,100854.66
2017-09-05T04:18:00.792Z,100845.38
2017-09-05T04:19:07.006Z,100855.41
2017-09-05T04:20:13.456Z,100853.59
2017-09-05T04:21:20.333Z,100852.65
2017-09-05T04:22:27.807Z,100851.84
2017-09-05T04:23:34.042Z,100851.54
2017-09-05T04:24:40.328Z,100848.97
2017-09-05T04:25:46.509Z,100852.94
2017-09-05T04:26:53.431Z,100852.17
2017-09-05T04:28:00.476Z,100857.83
2017-09-05T04:29:07.909Z,100851.53
2017-09-05T04:30:14.324Z,100854.28
2017-09-05T04:31:20.459Z,100852.58
2017-09-05T04:32:27.344Z,100848.22
2017-09-05T04:33:34.169Z,100855.62
2017-09-05T04:34:40.380Z,100852.56
2017-09-05T04:35:47.322Z,100851.47
2017-09-05T04:36:53.609Z,100852.53
2017-09-05T04:37:59.813Z,100851.58
2017-09-05T04:39:05.321Z,100857.01
2017-09-05T04:40:11.509Z,100854.78
2017-09-05T04:41:18.475Z,100850.87
2017-09-05T04:42:25.380Z,100857.61
2017-09-05T04:43:31.506Z,100859.34
2017-09-05T04:44:39.459Z,100859.03
2017-09-05T04:45:45.766Z,100865.67
2017-09-05T04:46:52.558Z,100860.09
2017-09-05T04:47:58.713Z,100864.44
2017-09-05T04:49:04.919Z,100860.89
2017-09-05T04:50:12.327Z,100858.58
2017-09-05T04:51:18.517Z,100862.34
2017-09-05T04:52:25.335Z,100865.48
2017-09-05T04:53:32.381Z,100864.20
2017-09-05T04:54:39.285Z,100868.72
2017-09-05T04:55:46.323Z,100867.77
2017-09-05T04:56:52.690Z,100863.40
2017-09-05T04:57:59.083Z,100871.58
2017-09-05T04:59:05.303Z,100871.41
2017-09-05T05:00:11.283Z,100870.42
2017-09-05T05:01:19.032Z,100873.80
2017-09-05T05:02:26.466Z,100874.14
2017-09-05T05:03:32.872Z,100875.53
2017-09-05T05:04:40.121Z,100875.66
2017-09-05T05:05:46.322Z,100878.66
2017-09-05T05:06:54.184Z,100870.09
2017-09-05T05:08:00.479Z,100876.80
2017-09-05T05:09:07.244Z,100880.20
2017-09-05T05:10:14.948Z,100881.64
2017-09-05T05:11:21.729Z,100881.02
2017-09-05T05:12:28.699Z,100883.62
2017-09-05T05:13:34.923Z,100879.45
2017-09-05T05:14:41.329Z,100878.26
2017-09-05T05:15:49.269Z,100882.95
2017-09-05T05:16:56.117Z,100882.67
2017-09-05T05:18:03.224Z,100884.06
2017-09-05T05:19:09.540Z,100883.20
2017-09-05T05:20:15.737Z,100885.22
2017-09-05T05:21:22.032Z,100886.12
2017-09-05T05:22:31.385Z,100884.36
2017-09-05T05:23:37.703Z,100889.00
2017-09-05T05:24:44.882Z,100886.47
2017-09-05T05:25:51.986Z,100885.91
2017-09-05T05:26:58.230Z,100897.96
2017-09-05T05:28:04.424Z,100896.05
2017-09-05T05:29:11.334Z,100897.52
2017-09-05T05:30:18.413Z,100897.82
2017-09-05T05:31:26.364Z,100894.79
2017-09-05T05:32:34.089Z,100899.36
2017-09-05T05:33:41.012Z,100897.62
2017-09-05T05:34:47.943Z,100892.91
2017-09-05T05:35:55.063Z,100890.14
2017-09-05T05:37:02.440Z,100881.70
2017-09-05T05:38:11.516Z,100884.34
2017-09-05T05:39:18.377Z,100884.00
2017-09-05T05:40:26.155Z,100887.63
2017-09-05T05:41:32.350Z,100886.94
2017-09-05T05:42:39.580Z,100887.53
2017-09-05T05:43:46.738Z,100891.97
2017-09-05T05:44:54.100Z,100886.47
2017-09-05T05:46:03.122Z,100888.20
2017-09-05T05:47:10.102Z,100884.95
2017-09-05T05:48:17.752Z,100888.28
2017-09-05T05:49:24.417Z,100890.05
2017-09-05T05:50:30.847Z,100886.81
2017-09-05T05:51:37.295Z,100884.59
2017-09-05T05:52:43.857Z,100887.30
2017-09-05T05:53:50.901Z,100887.28
2017-09-05T05:54:57.415Z,100887.02
2017-09-05T05:56:04.128Z,100889.16
2017-09-05T05:57:11.257Z,100889.47
2017-09-05T05:58:17.667Z,100888.37
2017-09-05T05:59:24.247Z,100886.31
2017-09-05T06:00:32.414Z,100888.97
2017-09-05T06:01:38.514Z,100888.45
2017-09-05T06:02:46.405Z,100896.09
2017-09-05T06:03:53.896Z,100889.75
2017-09-05T06:05:00.226Z,100889.75
2017-09-05T06:06:06.843Z,100890.17
2017-09-05T06:07:13.095Z,100890.31
2017-09-05T06:08:20.937Z,100889.94
2017-09-05T06:09:28.240Z,100889.06
2017-09-05T06:10:34.433Z,100889.22
2017-09-05T06:11:42.506Z,100890.16
2017-09-05T06:12:48.816Z,100895.02
2017-09-05T06:13:55.147Z,100892.71
2017-09-05T06:15:02.581Z,100891.50
2017-09-05T06:16:09.013Z,100889.06
2017-09-05T06:17:16.033Z,100892.14
2017-09-05T06:18:23.658Z,100894.17
2017-09-05T06:19:29.954Z,100890.22
2017-09-05T06:20:37.054Z,100888.23
2017-09-05T06:21:44.242Z,100885.84
2017-09-05T06:22:50.580Z,100890.84
2017-09-05T06:23:56.748Z,100891.08
2017-09-05T06:25:04.216Z,100886.80
2017-09-05T06:26:11.188Z,100893.19
2017-09-05T06:27:17.746Z,100885.39
2017-09-05T06:28:24.160Z,100885.30
2017-09-05T06:29:31.089Z,100894.25
2017-09-05T06:30:37.198Z,100893.20
2017-09-05T06:31:44.944Z,100887.70
2017-09-05T06:32:51.405Z,100888.64
2017-09-05T06:33:57.556Z,100892.05
2017-09-05T06:35:04.591Z,100887.61
2017-09-05T06:36:10.779Z,100894.05
2017-09-05T06:37:18.207Z,100890.64
2017-09-05T06:38:24.609Z,100888.94
2017-09-05T06:39:31.066Z,100888.23
2017-09-05T06:40:38.106Z,100887.84
2017-09-05T06:41:45.119Z,100889.11
2017-09-05T06:42:52.048Z,100898.78
2017-09-05T06:43:59.690Z,100895.73
2017-09-05T06:45:07.056Z,100892.11
2017-09-05T06:46:13.317Z,100897.67
2017-09-05T06:47:20.152Z,100897.48
2017-09-05T06:48:26.990Z,100894.14
2017-09-05T06:49:33.295Z,100893.73
2017-09-05T06:50:40.160Z,100897.30
2017-09-05T06:51:46.617Z,100892.70
2017-09-05T06:52:52.645Z,100899.79
2017-09-05T06:53:58.960Z,100900.34
2017-09-05T06:55:05.379Z,100896.27
2017-09-05T06:56:13.021Z,100897.49
2017-09-05T06:57:20.261Z,100897.92
2017-09-05T06:58:26.664Z,100895.02
2017-09-05T06:59:33.227Z,100897.33
2017-09-05T07:00:41.267Z,100894.78
2017-09-05T07:01:48.126Z,100892.19
2017-09-05T07:02:54.889Z,100895.58
2017-09-05T07:04:01.188Z,100892.31
2017-09-05T07:05:07.698Z,100896.55
2017-09-05T07:06:14.097Z,100891.45
2017-09-05T07:07:20.766Z,100897.27
2017-09-05T07:08:27.305Z,100894.95
2017-09-05T07:09:34.149Z,100893.97
2017-09-05T07:10:40.337Z,100899.13
2017-09-05T07:11:47.208Z,100905.69
2017-09-05T07:12:53.383Z,100902.27
2017-09-05T07:14:00.040Z,100903.12
2017-09-05T07:15:07.483Z,100908.19
2017-09-05T07:16:14.401Z,100903.89
2017-09-05T07:17:20.770Z,100902.06
2017-09-05T07:18:27.447Z,100903.48
2017-09-05T07:19:33.630Z,100905.05
2017-09-05T07:20:39.965Z,100903.92
2017-09-05T07:21:46.422Z,100904.95
2017-09-05T07:22:53.463Z,100905.88
2017-09-05T07:24:00.867Z,100903.75
2017-09-05T07:25:07.540Z,100907.38
2017-09-05T07:26:14.586Z,100908.06
2017-09-05T07:27:21.091Z,100908.81
2017-09-05T07:28:27.844Z,100910.07
2017-09-05T07:29:34.880Z,100911.67
2017-09-05T07:30:41.490Z,100904.87
2017-09-05T07:31:48.522Z,100908.00
2017-09-05T07:32:56.514Z,100914.34
2017-09-05T07:34:02.967Z,100911.23
2017-09-05T07:35:09.121Z,100912.25
2017-09-05T07:36:15.238Z,100913.34
2017-09-05T07:37:21.496Z,100909.16
2017-09-05T07:38:29.022Z,100906.19
2017-09-05T07:39:35.959Z,100913.73
2017-09-05T07:40:43.066Z,100913.48
2017-09-05T07:41:49.811Z,100919.88
2017-09-05T07:42:56.721Z,100915.84
2017-09-05T07:44:02.825Z,100917.91
2017-09-05T07:45:09.993Z,100916.14
2017-09-05T07:46:18.024Z,100916.47
2017-09-05T07:47:24.848Z,100913.47
2017-09-05T07:48:33.001Z,100910.67
2017-09-05T07:49:39.074Z,100910.19
2017-09-05T07:50:45.296Z,100909.86
2017-09-05T07:51:53.035Z,100902.97
2017-09-05T07:53:00.910Z,100906.62
2017-09-05T07:54:07.191Z,100904.94
2017-09-05T07:55:13.419Z,100913.82
2017-09-05T07:56:20.777Z,100904.13
2017-09-05T07:57:27.679Z,100906.03
2017-09-05T07:58:34.496Z,100904.52
2017-09-05T07:59:40.841Z,100903.98
2017-09-05T08:00:46.695Z,100908.19
2017-09-05T08:01:53.539Z,100911.97
2017-09-05T08:02:59.857Z,100905.11
2017-09-05T08:04:06.999Z,100911.97
2017-09-05T08:05:13.312Z,100909.59
2017-09-05T08:06:20.160Z,100916.06
2017-09-05T08:07:26.957Z,100913.36
2017-09-05T08:08:34.710Z,100914.26
2017-09-05T08:09:40.914Z,100915.19
2017-09-05T08:10:47.450Z,100913.72
2017-09-05T08:11:53.833Z,100916.50
2017-09-05T08:13:01.129Z,100911.99
2017-09-05T08:14:08.410Z,100914.05
2017-09-05T08:15:14.872Z,100918.84
2017-09-05T08:16:21.020Z,100913.81
2017-09-05T08:17:26.986Z,100909.55
2017-09-05T08:18:33.045Z,100899.81
2017-09-05T08:19:39.868Z,100911.74
2017-09-05T08:20:45.873Z,100909.09
2017-09-05T08:21:52.085Z,100910.48
2017-09-05T08:22:58.895Z,100914.57
2017-09-05T08:24:05.762Z,100906.23
2017-09-05T08:25:12.874Z,100908.53
2017-09-05T08:26:19.289Z,100902.36
2017-09-05T08:27:26.235Z,100906.82
2017-09-05T08:28:32.412Z,100906.78
2017-09-05T08:29:38.528Z,100903.83
2017-09-05T08:30:44.610Z,100904.00
2017-09-05T08:31:50.937Z,100905.88
2017-09-05T08:32:58.495Z,100903.05
2017-09-05T08:34:04.800Z,100897.67
2017-09-05T08:35:10.813Z,100901.19
2017-09-05T08:36:17.343Z,100901.55
2017-09-05T08:37:23.738Z,100899.03
2017-09-05T08:38:31.473Z,100902.90
2017-09-05T08:39:38.182Z,100899.98
2017-09-05T08:40:44.220Z,100895.93
2017-09-05T08:41:50.305Z,100895.39
2017-09-05T08:42:56.315Z,100898.86
2017-09-05T08:44:02.926Z,100898.77
2017-09-05T08:45:08.932Z,100897.43
2017-09-05T08:46:15.963Z,100893.04
2017-09-05T08:47:23.626Z,100894.66
2017-09-05T08:48:30.580Z,100893.96
2017-09-05T08:49:38.801Z,100890.24
2017-09-05T08:50:44.965Z,100897.73
2017-09-05T08:51:51.879Z,100892.88
2017-09-05T08:52:57.956Z,100890.27
2017-09-05T08:54:03.873Z,100893.05
2017-09-05T08:55:10.650Z,100891.13
2017-09-05T08:56:18.431Z,100894.23
2017-09-05T08:57:28.390Z,100892.20
2017-09-05T08:58:37.897Z,100896.72
2017-09-05T08:59:45.530Z,100889.83
2017-09-05T09:00:52.383Z,100894.77
2017-09-05T09:01:58.641Z,100893.75
2017-09-05T09:03:04.868Z,100889.02
2017-09-05T09:04:11.831Z,100891.49
2017-09-05T09:05:17.801Z,100891.36
2017-09-05T09:06:25.119Z,100891.47
2017-09-05T09:07:31.063Z,100901.13
2017-09-05T09:08:37.112Z,100892.70
2017-09-05T09:09:43.046Z,100891.47
2017-09-05T09:10:49.149Z,100884.27
2017-09-05T09:11:55.077Z,100884.41
2017-09-05T09:13:01.619Z,100883.69
2017-09-05T09:14:08.265Z,100886.98
2017-09-05T09:15:14.727Z,100888.55
2017-09-05T09:16:21.429Z,100886.52
2017-09-05T09:17:27.417Z,100889.80
2017-09-05T09:18:33.326Z,100884.14
2017-09-05T09:19:39.323Z,100879.56
2017-09-05T09:20:45.339Z,100875.88
2017-09-05T09:21:51.930Z,100882.67
2017-09-05T09:22:59.709Z,100879.32
2017-09-05T09:24:05.712Z,100884.45
2017-09-05T09:25:12.213Z,100878.42
2017-09-05T09:26:18.242Z,100879.16
2017-09-05T09:27:24.225Z,100871.26
2017-09-05T09:28:30.499Z,100872.72
2017-09-05T09:29:36.379Z,100876.61
2017-09-05T09:30:42.571Z,100876.43
2017-09-05T09:31:48.768Z,100870.87
2017-09-05T09:32:54.776Z,100871.20
2017-09-05T09:34:00.715Z,100870.36
2017-09-05T09:35:06.732Z,100876.86
2017-09-05T09:36:12.687Z,100868.30
2017-09-05T09:37:19.772Z,100871.28
2017-09-05T09:38:25.723Z,100873.53
2017-09-05T09:39:31.581Z,100868.91
2017-09-05T09:40:37.449Z,100871.81
2017-09-05T09:41:43.634Z,100869.75
2017-09-05T09:42:50.633Z,100867.08
2017-09-05T09:43:56.932Z,100867.91
2017-09-05T09:45:03.376Z,100866.31
2017-09-05T09:46:10.096Z,100869.62
2017-09-05T09:47:17.917Z,100865.25
2017-09-05T09:48:25.996Z,100865.75
2017-09-05T09:49:35.094Z,100858.82
2017-09-05T09:50:41.831Z,100856.46
2017-09-05T09:51:47.740Z,100860.01
2017-09-05T09:52:53.816Z,100857.77
2017-09-05T09:54:00.351Z,100855.13
2017-09-05T09:55:07.851Z,100857.09
2017-09-05T09:56:13.856Z,100854.95
2017-09-05T09:57:19.791Z,100856.86
2017-09-05T09:58:25.716Z,100856.35
2017-09-05T09:59:32.242Z,100853.36
2017-09-05T10:00:38.306Z,100848.67
2017-09-05T10:01:44.179Z,100852.31
2017-09-05T10:02:50.195Z,100852.42
2017-09-05T10:03:56.981Z,100849.74
2017-09-05T10:05:03.095Z,100848.83
2017-09-05T10:06:10.117Z,100851.23
2017-09-05T10:07:16.673Z,100851.86
2017-09-05T10:08:22.621Z,100850.30
2017-09-05T10:09:28.477Z,100846.00
2017-09-05T10:10:34.503Z,100842.48
2017-09-05T10:11:40.980Z,100852.31
2017-09-05T10:12:46.839Z,100849.16
2017-09-05T10:13:52.687Z,100843.17
2017-09-05T10:14:58.621Z,100851.97
2017-09-05T10:16:04.658Z,100845.33
2017-09-05T10:17:10.615Z,100840.89
2017-09-05T10:18:17.231Z,100832.66
2017-09-05T10:19:24.072Z,100834.90
2017-09-05T10:20:29.915Z,100838.44
2017-09-05T10:21:35.982Z,100832.50
2017-09-05T10:22:42.485Z,100829.07
2017-09-05T10:23:48.501Z,100834.74
2017-09-05T10:24:54.512Z,100835.91
2017-09-05T10:26:00.365Z,100831.47
2017-09-05T10:27:06.347Z,100832.77
2017-09-05T10:28:12.257Z,100831.86
2017-09-05T10:29:18.714Z,100830.42
2017-09-05T10:30:24.544Z,100825.81
2017-09-05T10:31:30.492Z,100822.97
2017-09-05T10:32:37.684Z,100823.61
2017-09-05T10:33:43.620Z,100818.85
2017-09-05T10:34:49.656Z,100827.47
2017-09-05T10:35:56.508Z,100815.39
2017-09-05T10:37:02.496Z,100820.08
2017-09-05T10:38:08.463Z,100814.09
2017-09-05T10:39:14.600Z,100818.00
2017-09-05T10:40:20.626Z,100811.86
2017-09-05T10:41:26.562Z,100812.61
2017-09-05T10:42:32.468Z,100810.41
2017-09-05T10:43:38.441Z,100808.06
2017-09-05T10:44:44.435Z,100810.73
2017-09-05T10:45:50.417Z,100805.71
2017-09-05T10:46:56.452Z,100811.81
2017-09-05T10:48:02.467Z,100802.69
2017-09-05T10:49:08.463Z,100808.17
2017-09-05T10:50:14.773Z,100811.86
2017-09-05T10:51:20.984Z,100812.05
2017-09-05T10:52:27.299Z,100808.52
2017-09-05T10:53:33.401Z,100807.73
2017-09-05T10:54:39.352Z,100803.16
2017-09-05T10:55:46.122Z,100798.16
2017-09-05T10:56:52.114Z,100799.81
2017-09-05T10:57:58.121Z,100799.47
2017-09-05T10:59:04.126Z,100803.41
2017-09-05T11:00:10.471Z,100797.60
2017-09-05T11:01:18.693Z,100794.09
2017-09-05T11:02:24.615Z,100797.53
2017-09-05T11:03:31.438Z,100803.13
2017-09-05T11:04:37.458Z,100799.23
2017-09-05T11:05:44.478Z,100801.42
2017-09-05T11:06:51.455Z,100793.11
2017-09-05T11:07:57.693Z,100798.27
2017-09-05T11:09:04.529Z,100798.69
2017-09-05T11:10:11.458Z,100796.30
2017-09-05T11:11:17.463Z,100800.89
2017-09-05T11:12:24.912Z,100800.01
2017-09-05T11:13:31.020Z,100800.34
2017-09-05T11:14:37.009Z,100794.23
2017-09-05T11:15:43.022Z,100797.80
2017-09-05T11:16:50.049Z,100790.36
2017-09-05T11:17:56.371Z,100792.67
2017-09-05T11:19:03.040Z,100789.48
2017-09-05T11:20:09.759Z,100795.67
2017-09-05T11:21:16.320Z,100790.77
2017-09-05T11:22:22.446Z,100792.72
2017-09-05T11:23:28.483Z,100795.34
2017-09-05T11:24:36.589Z,100792.55
2017-09-05T11:25:42.597Z,100794.44
2017-09-05T11:26:49.525Z,100783.87
2017-09-05T11:27:56.773Z,100783.44
2017-09-05T11:29:02.708Z,100792.34
2017-09-05T11:30:08.705Z,100782.73
2017-09-05T11:31:16.314Z,100789.59
2017-09-05T11:32:22.410Z,100786.32
2017-09-05T11:33:28.656Z,100786.48
2017-09-05T11:34:35.444Z,100797.25
2017-09-05T11:35:42.367Z,100795.09
2017-09-05T11:36:50.010Z,100783.42
2017-09-05T11:37:56.156Z,100793.10
2017-09-05T11:39:02.536Z,100788.52
2017-09-05T11:40:10.614Z,100789.37
2017-09-05T11:41:16.586Z,100791.69
2017-09-05T11:42:22.520Z,100791.77
2017-09-05T11:43:28.500Z,100778.79
2017-09-05T11:44:34.500Z,100782.43
2017-09-05T11:45:43.062Z,100782.81
2017-09-05T11:46:50.299Z,100780.19
2017-09-05T11:47:56.764Z,100781.39
2017-09-05T11:49:03.537Z,100781.31
2017-09-05T11:50:09.636Z,100781.30
2017-09-05T11:51:16.436Z,100786.55
2017-09-05T11:52:22.420Z,100783.61
2017-09-05T11:53:28.738Z,100777.53
2017-09-05T11:54:35.563Z,100778.81
2017-09-05T11:55:41.508Z,100778.64
2017-09-05T11:56:47.516Z,100774.81
2017-09-05T11:57:53.429Z,100775.05
2017-09-05T11:58:59.420Z,100775.50
2017-09-05T12:00:08.887Z,100775.11
2017-09-05T12:01:15.628Z,100770.92
2017-09-05T12:02:22.352Z,100776.71
2017-09-05T12:03:29.184Z,100780.41
2017-09-05T12:04:35.283Z,100776.29
2017-09-05T12:05:41.369Z,100776.52
2017-09-05T12:06:47.384Z,100780.80
2017-09-05T12:07:53.657Z,100777.69
2017-09-05T12:08:59.739Z,100777.86
2017-09-05T12:10:05.828Z,100776.52
2017-09-05T12:11:12.539Z,100773.88
2017-09-05T12:12:18.546Z,100771.94
2017-09-05T12:13:24.646Z,100775.39
2017-09-05T12:14:30.935Z,100773.55
2017-09-05T12:15:36.863Z,100769.22
2017-09-05T12:16:42.869Z,100766.91
2017-09-05T12:17:48.981Z,100770.61
2017-09-05T12:18:54.792Z,100772.06
2017-09-05T12:20:00.976Z,100767.86
2017-09-05T12:21:06.971Z,100764.39
2017-09-05T12:22:13.955Z,100765.20
2017-09-05T12:23:20.239Z,100764.50
2017-09-05T12:24:27.269Z,100760.57
2017-09-05T12:25:35.208Z,100755.08
2017-09-05T12:26:42.037Z,100757.35
2017-09-05T12:27:49.181Z,100757.45
2017-09-05T12:28:55.378Z,100752.30
2017-09-05T12:30:00.788Z,100752.03
2017-09-05T12:31:06.852Z,100752.60
2017-09-05T12:32:12.269Z,100748.56
2017-09-05T12:33:18.438Z,100749.91
2017-09-05T12:34:25.584Z,100754.34
2017-09-05T12:35:31.429Z,100747.60
2017-09-05T12:36:36.871Z,100746.72
2017-09-05T12:37:42.363Z,100746.98
2017-09-05T12:38:48.388Z,100745.75
2017-09-05T12:39:54.681Z,100748.67
2017-09-05T12:41:00.718Z,100743.92
2017-09-05T12:42:10.303Z,100747.75